createdAt,value
2018-11-23T00:00:11.959Z,3.37
2018-11-23T00:01:11.979Z,3.37
2018-11-23T00:02:12.001Z,3.32
2018-11-23T00:03:12.023Z,3.24
2018-11-23T00:04:12.047Z,3.34
2018-11-23T00:05:12.073Z,3.39
2018-11-23T00:06:12.090Z,3.27
2018-11-23T00:07:12.112Z,3.37
2018-11-23T00:08:12.134Z,3.27
2018-11-23T00:09:12.157Z,3.20
2018-11-23T00:10:12.179Z,3.19
2018-11-23T00:11:12.200Z,3.21
2018-11-23T00:12:12.223Z,3.23
2018-11-23T00:13:12.246Z,3.21
2018-11-23T00:14:12.267Z,3.21
2018-11-23T00:15:12.290Z,3.17
2018-11-23T00:16:12.312Z,3.17
2018-11-23T00:17:12.334Z,3.24
2018-11-23T00:18:12.357Z,3.20
2018-11-23T00:19:12.380Z,3.21
2018-11-23T00:20:12.401Z,3.13
2018-11-23T00:21:12.426Z,3.08
2018-11-23T00:22:12.445Z,3.16
2018-11-23T00:23:12.468Z,3.16
2018-11-23T00:24:12.490Z,3.21
2018-11-23T00:25:12.513Z,3.08
2018-11-23T00:26:12.533Z,3.16
2018-11-23T00:27:12.556Z,3.11
2018-11-23T00:28:12.582Z,3.13
2018-11-23T00:29:12.600Z,3.14
2018-11-23T00:30:12.622Z,3.08
2018-11-23T00:31:12.643Z,3.06
2018-11-23T00:32:12.666Z,3.08
2018-11-23T00:33:12.689Z,3.03
2018-11-23T00:34:12.714Z,3.06
2018-11-23T00:35:12.733Z,3.09
2018-11-23T00:36:12.755Z,3.06
2018-11-23T00:37:12.778Z,3.09
2018-11-23T00:38:12.799Z,3.08
2018-11-23T00:39:12.820Z,3.13
2018-11-23T00:40:12.844Z,3.13
2018-11-23T00:41:12.867Z,3.09
2018-11-23T00:42:12.886Z,3.19
2018-11-23T00:43:12.909Z,3.09
2018-11-23T00:44:12.934Z,3.13
2018-11-23T00:45:12.954Z,3.11
2018-11-23T00:46:12.978Z,3.08
2018-11-23T00:47:12.998Z,3.13
2018-11-23T00:48:13.020Z,3.20
2018-11-23T00:49:13.042Z,3.19
2018-11-23T00:50:13.064Z,3.21
2018-11-23T00:51:13.086Z,3.21
2018-11-23T00:52:13.108Z,3.21
2018-11-23T00:53:13.130Z,3.20
2018-11-23T00:54:13.154Z,3.23
2018-11-23T00:55:13.176Z,3.24
2018-11-23T00:56:13.196Z,3.26
2018-11-23T00:57:13.219Z,3.23
2018-11-23T00:58:13.240Z,3.32
2018-11-23T00:59:13.262Z,3.23
2018-11-23T01:00:13.285Z,3.32
2018-11-23T01:01:13.307Z,3.34
2018-11-23T01:02:13.329Z,3.39
2018-11-23T01:03:13.350Z,3.34
2018-11-23T01:04:13.372Z,3.46
2018-11-23T01:05:13.401Z,3.48
2018-11-23T01:06:13.416Z,3.43
2018-11-23T01:07:13.438Z,3.53
2018-11-23T01:08:13.461Z,3.60
2018-11-23T01:09:13.486Z,3.48
2018-11-23T01:10:13.504Z,3.51
2018-11-23T01:11:13.528Z,3.58
2018-11-23T01:12:13.550Z,3.57
2018-11-23T01:13:13.572Z,3.51
2018-11-23T01:14:13.593Z,3.54
2018-11-23T01:15:13.616Z,3.63
2018-11-23T01:16:13.637Z,3.66
2018-11-23T01:17:13.660Z,3.63
2018-11-23T01:18:13.681Z,3.67
2018-11-23T01:19:13.704Z,3.71
2018-11-23T01:20:13.726Z,3.66
2018-11-23T01:21:13.752Z,3.76
2018-11-23T01:22:13.772Z,3.67
2018-11-23T01:23:13.794Z,3.71
2018-11-23T01:24:13.816Z,3.69
2018-11-23T01:25:13.840Z,3.78
2018-11-23T01:26:13.858Z,3.78
2018-11-23T01:27:13.884Z,3.82
2018-11-23T01:28:13.903Z,3.82
2018-11-23T01:29:13.926Z,3.82
2018-11-23T01:30:13.951Z,3.82
2018-11-23T01:31:13.970Z,3.78
2018-11-23T01:32:13.995Z,3.78
2018-11-23T01:33:14.015Z,3.82
2018-11-23T01:34:14.038Z,3.81
2018-11-23T01:35:14.060Z,3.84
2018-11-23T01:36:14.081Z,3.81
2018-11-23T01:37:14.104Z,3.89
2018-11-23T01:38:14.126Z,3.92
2018-11-23T01:39:14.148Z,3.85
2018-11-23T01:40:14.170Z,3.84
2018-11-23T01:41:14.195Z,3.89
2018-11-23T01:42:14.214Z,3.84
2018-11-23T01:43:14.238Z,3.82
2018-11-23T01:44:14.261Z,3.82
2018-11-23T01:45:14.282Z,3.82
2018-11-23T01:46:14.303Z,3.84
2018-11-23T01:47:14.326Z,3.78
2018-11-23T01:48:14.348Z,3.76
2018-11-23T01:49:14.370Z,3.84
2018-11-23T01:50:14.395Z,3.74
2018-11-23T01:51:14.415Z,3.79
2018-11-23T01:52:14.437Z,3.85
2018-11-23T01:53:14.460Z,3.86
2018-11-23T01:54:14.482Z,3.81
2018-11-23T01:55:14.512Z,3.86
2018-11-23T01:56:14.528Z,3.84
2018-11-23T01:57:14.549Z,3.72
2018-11-23T01:58:14.571Z,3.71
2018-11-23T01:59:14.593Z,3.64
2018-11-23T02:00:14.617Z,3.75
2018-11-23T02:01:14.638Z,3.76
2018-11-23T02:02:14.660Z,3.66
2018-11-23T02:03:14.682Z,3.74
2018-11-23T02:04:14.705Z,3.71
2018-11-23T02:05:14.726Z,3.75
2018-11-23T02:06:14.749Z,3.75
2018-11-23T02:07:14.775Z,3.74
2018-11-23T02:08:14.793Z,3.63
2018-11-23T02:09:14.816Z,3.69
2018-11-23T02:10:14.838Z,3.63
2018-11-23T02:11:14.861Z,3.57
2018-11-23T02:12:14.884Z,3.57
2018-11-23T02:13:14.906Z,3.67
2018-11-23T02:14:14.927Z,3.66
2018-11-23T02:15:14.950Z,3.67
2018-11-23T02:16:14.972Z,3.64
2018-11-23T02:17:14.996Z,3.63
2018-11-23T02:18:15.016Z,3.66
2018-11-23T02:19:15.040Z,3.63
2018-11-23T02:20:15.061Z,3.64
2018-11-23T02:21:15.083Z,3.66
2018-11-23T02:22:15.107Z,3.51
2018-11-23T02:23:15.129Z,3.60
2018-11-23T02:24:15.153Z,3.57
2018-11-23T02:25:15.172Z,3.56
2018-11-23T02:26:15.194Z,3.53
2018-11-23T02:27:15.219Z,3.46
2018-11-23T02:28:15.239Z,3.45
2018-11-23T02:29:15.261Z,3.32
2018-11-23T02:30:15.286Z,3.34
2018-11-23T02:31:15.305Z,3.51
2018-11-23T02:32:15.328Z,3.42
2018-11-23T02:33:15.352Z,3.32
2018-11-23T02:34:15.374Z,3.39
2018-11-23T02:35:15.396Z,3.34
2018-11-23T02:36:15.417Z,3.34
2018-11-23T02:37:15.439Z,3.37
2018-11-23T02:38:15.460Z,3.32
2018-11-23T02:39:15.483Z,3.35
2018-11-23T02:40:15.508Z,3.37
2018-11-23T02:41:15.529Z,3.26
2018-11-23T02:42:15.549Z,3.26
2018-11-23T02:43:15.571Z,3.21
2018-11-23T02:44:15.593Z,3.21
2018-11-23T02:45:15.618Z,3.23
2018-11-23T02:46:15.639Z,3.23
2018-11-23T02:47:15.660Z,3.23
2018-11-23T02:48:15.682Z,3.21
2018-11-23T02:49:15.704Z,3.19
2018-11-23T02:50:15.729Z,3.19
2018-11-23T02:51:15.749Z,3.17
2018-11-23T02:52:15.770Z,3.09
2018-11-23T02:53:15.793Z,3.23
2018-11-23T02:54:15.816Z,3.20
2018-11-23T02:55:15.839Z,3.16
2018-11-23T02:56:15.859Z,3.11
2018-11-23T02:57:15.881Z,3.19
2018-11-23T02:58:15.902Z,3.08
2018-11-23T02:59:15.924Z,3.03
2018-11-23T03:00:15.949Z,3.11
2018-11-23T03:01:15.969Z,3.09
2018-11-23T03:02:15.990Z,3.08
2018-11-23T03:03:16.012Z,3.02
2018-11-23T03:04:16.034Z,2.99
2018-11-23T03:05:16.056Z,3.03
2018-11-23T03:06:16.078Z,3.02
2018-11-23T03:07:16.100Z,2.95
2018-11-23T03:08:16.122Z,3.03
2018-11-23T03:09:16.145Z,2.99
2018-11-23T03:10:16.168Z,2.90
2018-11-23T03:11:16.188Z,2.95
2018-11-23T03:12:16.210Z,2.93
2018-11-23T03:13:16.232Z,2.88
2018-11-23T03:14:16.253Z,2.90
2018-11-23T03:15:16.275Z,2.91
2018-11-23T03:16:16.297Z,2.88
2018-11-23T03:17:16.321Z,2.87
2018-11-23T03:18:16.340Z,2.88
2018-11-23T03:19:16.367Z,2.84
2018-11-23T03:20:16.386Z,2.84
2018-11-23T03:21:16.406Z,2.84
2018-11-23T03:22:16.429Z,2.88
2018-11-23T03:23:16.451Z,2.78
2018-11-23T03:24:16.472Z,2.84
2018-11-23T03:25:16.501Z,2.84
2018-11-23T03:26:16.515Z,2.84
2018-11-23T03:27:16.538Z,2.88
2018-11-23T03:28:16.562Z,2.84
2018-11-23T03:29:16.583Z,2.81
2018-11-23T03:30:16.607Z,2.84
2018-11-23T03:31:16.625Z,2.81
2018-11-23T03:32:16.648Z,2.72
2018-11-23T03:33:16.669Z,2.69
2018-11-23T03:34:16.692Z,2.83
2018-11-23T03:35:16.712Z,2.83
2018-11-23T03:36:16.739Z,2.70
2018-11-23T03:37:16.760Z,2.77
2018-11-23T03:38:16.783Z,2.80
2018-11-23T03:39:16.800Z,2.70
2018-11-23T03:40:16.822Z,2.73
2018-11-23T03:41:16.845Z,2.65
2018-11-23T03:42:16.865Z,2.67
2018-11-23T03:43:16.890Z,2.65
2018-11-23T03:44:16.911Z,2.65
2018-11-23T03:45:16.931Z,2.65
2018-11-23T03:46:16.954Z,2.62
2018-11-23T03:47:16.973Z,2.66
2018-11-23T03:48:16.996Z,2.66
2018-11-23T03:49:17.021Z,2.63
2018-11-23T03:50:17.039Z,2.60
2018-11-23T03:51:17.062Z,2.55
2018-11-23T03:52:17.086Z,2.45
2018-11-23T03:53:17.106Z,2.41
2018-11-23T03:54:17.131Z,2.40
2018-11-23T03:55:17.149Z,2.47
2018-11-23T03:56:17.172Z,2.44
2018-11-23T03:57:17.195Z,2.45
2018-11-23T03:58:17.213Z,2.48
2018-11-23T03:59:17.237Z,2.42
2018-11-23T04:00:17.762Z,2.30
2018-11-23T04:01:17.280Z,2.42
2018-11-23T04:02:17.301Z,2.47
2018-11-23T04:03:17.323Z,2.38
2018-11-23T04:04:17.344Z,2.41
2018-11-23T04:05:17.367Z,2.47
2018-11-23T04:06:17.388Z,2.47
2018-11-23T04:07:17.412Z,2.42
2018-11-23T04:08:17.433Z,2.31
2018-11-23T04:09:17.453Z,2.48
2018-11-23T04:10:17.475Z,2.48
2018-11-23T04:11:17.496Z,2.33
2018-11-23T04:12:17.518Z,2.44
2018-11-23T04:13:17.541Z,2.36
2018-11-23T04:14:17.560Z,2.36
2018-11-23T04:15:17.588Z,2.41
2018-11-23T04:16:17.606Z,2.34
2018-11-23T04:17:17.630Z,2.48
2018-11-23T04:18:17.648Z,2.38
2018-11-23T04:19:17.669Z,2.31
2018-11-23T04:20:17.693Z,2.38
2018-11-23T04:21:17.713Z,2.33
2018-11-23T04:22:17.740Z,2.34
2018-11-23T04:23:17.756Z,2.42
2018-11-23T04:24:17.778Z,2.30
2018-11-23T04:25:17.801Z,2.38
2018-11-23T04:26:24.478Z,2.26
2018-11-23T04:27:17.843Z,2.30
2018-11-23T04:28:17.866Z,2.30
2018-11-23T04:29:17.889Z,2.31
2018-11-23T04:30:17.907Z,2.38
2018-11-23T04:31:17.936Z,2.34
2018-11-23T04:32:17.951Z,2.42
2018-11-23T04:33:17.973Z,2.29
2018-11-23T04:34:17.995Z,2.34
2018-11-23T04:35:18.016Z,2.36
2018-11-23T04:36:18.042Z,2.36
2018-11-23T04:37:18.061Z,2.31
2018-11-23T04:38:18.081Z,2.31
2018-11-23T04:39:18.103Z,2.36
2018-11-23T04:40:18.125Z,2.36
2018-11-23T04:41:18.148Z,2.33
2018-11-23T04:42:18.167Z,2.27
2018-11-23T04:43:18.190Z,2.29
2018-11-23T04:44:18.212Z,2.30
2018-11-23T04:45:18.235Z,2.31
2018-11-23T04:46:18.255Z,2.31
2018-11-23T04:47:18.280Z,2.29
2018-11-23T04:48:18.298Z,2.36
2018-11-23T04:49:18.321Z,2.36
2018-11-23T04:50:18.342Z,2.36
2018-11-23T04:51:18.366Z,2.31
2018-11-23T04:52:18.386Z,2.34
2018-11-23T04:53:18.407Z,2.34
2018-11-23T04:54:18.428Z,2.29
2018-11-23T04:55:18.451Z,2.30
2018-11-23T04:56:18.472Z,2.34
2018-11-23T04:57:18.494Z,2.33
2018-11-23T04:58:18.515Z,2.38
2018-11-23T04:59:18.544Z,2.33
2018-11-23T05:00:18.560Z,2.33
2018-11-23T05:01:18.580Z,2.31
2018-11-23T05:02:18.601Z,2.33
2018-11-23T05:03:18.623Z,2.30
2018-11-23T05:04:18.645Z,2.31
2018-11-23T05:05:18.667Z,2.31
2018-11-23T05:06:18.688Z,2.36
2018-11-23T05:07:18.712Z,2.30
2018-11-23T05:08:18.733Z,2.33
2018-11-23T05:09:18.754Z,2.29
2018-11-23T05:10:18.775Z,2.31
2018-11-23T05:11:18.797Z,2.36
2018-11-23T05:12:18.819Z,2.33
2018-11-23T05:13:18.840Z,2.31
2018-11-23T05:14:18.863Z,2.36
2018-11-23T05:15:18.883Z,2.34
2018-11-23T05:16:18.906Z,2.31
2018-11-23T05:17:18.927Z,2.41
2018-11-23T05:18:18.948Z,2.34
2018-11-23T05:19:18.970Z,2.34
2018-11-23T05:20:18.994Z,2.36
2018-11-23T05:21:19.015Z,2.36
2018-11-23T05:22:19.038Z,2.31
2018-11-23T05:23:19.058Z,2.38
2018-11-23T05:24:19.078Z,2.42
2018-11-23T05:25:19.100Z,2.34
2018-11-23T05:26:19.121Z,2.33
2018-11-23T05:27:19.146Z,2.33
2018-11-23T05:28:19.164Z,2.30
2018-11-23T05:29:19.187Z,2.27
2018-11-23T05:30:19.207Z,2.41
2018-11-23T05:31:19.230Z,2.29
2018-11-23T05:32:19.290Z,2.34
2018-11-23T05:33:19.275Z,2.41
2018-11-23T05:34:19.293Z,2.34
2018-11-23T05:35:19.316Z,2.36
2018-11-23T05:36:19.364Z,2.31
2018-11-23T05:37:19.360Z,2.30
2018-11-23T05:38:19.381Z,2.41
2018-11-23T05:39:19.401Z,2.33
2018-11-23T05:40:19.423Z,2.36
2018-11-23T05:41:19.445Z,2.27
2018-11-23T05:42:19.466Z,2.30
2018-11-23T05:43:19.487Z,2.33
2018-11-23T05:44:19.510Z,2.33
2018-11-23T05:45:19.531Z,2.31
2018-11-23T05:46:19.552Z,2.30
2018-11-23T05:47:19.573Z,2.30
2018-11-23T05:48:22.943Z,2.36
2018-11-23T05:49:19.618Z,2.29
2018-11-23T05:50:19.638Z,2.31
2018-11-23T05:51:19.659Z,2.36
2018-11-23T05:52:19.683Z,2.31
2018-11-23T05:53:19.702Z,2.23
2018-11-23T05:54:19.726Z,2.27
2018-11-23T05:55:19.748Z,2.33
2018-11-23T05:56:19.767Z,2.30
2018-11-23T05:57:19.789Z,2.29
2018-11-23T05:58:19.810Z,2.30
2018-11-23T05:59:19.835Z,2.26
2018-11-23T06:00:19.853Z,2.20
2018-11-23T06:01:19.875Z,2.24
2018-11-23T06:02:19.896Z,2.26
2018-11-23T06:03:19.918Z,2.20
2018-11-23T06:04:19.939Z,2.24
2018-11-23T06:05:19.961Z,2.18
2018-11-23T06:06:19.981Z,2.16
2018-11-23T06:07:20.004Z,2.11
2018-11-23T06:08:20.025Z,2.12
2018-11-23T06:09:20.048Z,2.15
2018-11-23T06:10:20.070Z,2.09
2018-11-23T06:11:20.091Z,2.16
2018-11-23T06:12:20.212Z,2.16
2018-11-23T06:13:20.234Z,2.15
2018-11-23T06:14:20.205Z,2.13
2018-11-23T06:15:20.176Z,2.11
2018-11-23T06:16:20.199Z,2.11
2018-11-23T06:17:20.219Z,2.11
2018-11-23T06:18:20.240Z,2.20
2018-11-23T06:19:20.261Z,2.13
2018-11-23T06:20:20.283Z,2.13
2018-11-23T06:21:20.305Z,2.18
2018-11-23T06:22:20.325Z,2.12
2018-11-23T06:23:20.348Z,2.08
2018-11-23T06:24:20.369Z,2.06
2018-11-23T06:25:20.394Z,2.11
2018-11-23T06:26:20.411Z,2.08
2018-11-23T06:27:20.433Z,2.11
2018-11-23T06:28:20.455Z,2.12
2018-11-23T06:29:20.476Z,2.13
2018-11-23T06:30:20.497Z,2.13
2018-11-23T06:31:20.519Z,2.04
2018-11-23T06:32:20.541Z,2.11
2018-11-23T06:33:20.564Z,2.11
2018-11-23T06:34:20.585Z,2.13
2018-11-23T06:35:20.607Z,2.11
2018-11-23T06:36:20.627Z,2.04
2018-11-23T06:37:20.649Z,2.16
2018-11-23T06:38:20.668Z,2.12
2018-11-23T06:39:20.690Z,2.02
2018-11-23T06:40:20.711Z,2.13
2018-11-23T06:41:20.733Z,2.11
2018-11-23T06:42:20.755Z,2.11
2018-11-23T06:43:20.777Z,2.11
2018-11-23T06:44:20.799Z,2.05
2018-11-23T06:45:20.818Z,2.11
2018-11-23T06:46:20.840Z,2.12
2018-11-23T06:47:20.862Z,2.12
2018-11-23T06:48:20.885Z,2.01
2018-11-23T06:49:20.905Z,2.08
2018-11-23T06:50:20.926Z,2.04
2018-11-23T06:51:20.947Z,2.11
2018-11-23T06:52:20.968Z,2.05
2018-11-23T06:53:20.995Z,2.04
2018-11-23T06:54:21.011Z,2.08
2018-11-23T06:55:21.034Z,2.05
2018-11-23T06:56:21.054Z,2.02
2018-11-23T06:57:21.080Z,2.02
2018-11-23T06:58:21.100Z,1.98
2018-11-23T06:59:21.118Z,1.98
2018-11-23T07:00:21.140Z,2.05
2018-11-23T07:01:21.162Z,2.06
2018-11-23T07:02:21.182Z,2.02
2018-11-23T07:03:21.204Z,2.02
2018-11-23T07:04:21.226Z,2.06
2018-11-23T07:05:21.248Z,1.92
2018-11-23T07:06:21.268Z,2.02
2018-11-23T07:07:21.289Z,2.04
2018-11-23T07:08:21.313Z,2.08
2018-11-23T07:09:21.333Z,2.04
2018-11-23T07:10:21.354Z,1.93
2018-11-23T07:11:21.375Z,2.02
2018-11-23T07:12:21.396Z,1.93
2018-11-23T07:13:21.419Z,2.01
2018-11-23T07:14:21.439Z,1.94
2018-11-23T07:15:21.465Z,1.98
2018-11-23T07:16:21.483Z,2.01
2018-11-23T07:17:21.504Z,1.90
2018-11-23T07:18:21.525Z,1.97
2018-11-23T07:19:21.547Z,1.94
2018-11-23T07:20:21.568Z,1.97
2018-11-23T07:21:21.672Z,1.97
2018-11-23T07:22:21.611Z,2.04
2018-11-23T07:23:21.632Z,1.93
2018-11-23T07:24:21.658Z,2.01
2018-11-23T07:25:21.675Z,1.94
2018-11-23T07:26:21.696Z,1.93
2018-11-23T07:27:21.718Z,2.01
2018-11-23T07:28:21.742Z,1.90
2018-11-23T07:29:21.761Z,1.98
2018-11-23T07:30:21.788Z,2.06
2018-11-23T07:31:21.808Z,2.08
2018-11-23T07:32:21.826Z,2.05
2018-11-23T07:33:21.852Z,2.05
2018-11-23T07:34:22.882Z,2.04
2018-11-23T07:35:21.899Z,2.02
2018-11-23T07:36:21.910Z,2.01
2018-11-23T07:37:21.934Z,2.12
2018-11-23T07:38:21.953Z,2.11
2018-11-23T07:39:21.975Z,2.13
2018-11-23T07:40:21.996Z,2.04
2018-11-23T07:41:22.018Z,1.98
2018-11-23T07:42:22.039Z,2.08
2018-11-23T07:43:22.061Z,2.15
2018-11-23T07:44:22.083Z,2.16
2018-11-23T07:45:22.104Z,2.12
2018-11-23T07:46:22.125Z,2.09
2018-11-23T07:47:22.146Z,2.16
2018-11-23T07:48:22.268Z,2.16
2018-11-23T07:49:22.189Z,2.22
2018-11-23T07:50:22.214Z,2.24
2018-11-23T07:51:22.232Z,2.22
2018-11-23T07:52:22.254Z,2.29
2018-11-23T07:53:22.275Z,2.33
2018-11-23T07:54:22.296Z,2.27
2018-11-23T07:55:22.318Z,2.33
2018-11-23T07:56:22.342Z,2.29
2018-11-23T07:57:22.361Z,2.30
2018-11-23T07:58:22.382Z,2.34
2018-11-23T07:59:22.404Z,2.36
2018-11-23T08:00:22.431Z,2.31
2018-11-23T08:01:22.449Z,2.38
2018-11-23T08:02:22.468Z,2.41
2018-11-23T08:03:22.491Z,2.42
2018-11-23T08:04:22.517Z,2.42
2018-11-23T08:05:22.534Z,2.45
2018-11-23T08:06:22.558Z,2.48
2018-11-23T08:07:22.578Z,2.47
2018-11-23T08:08:22.600Z,2.36
2018-11-23T08:09:22.622Z,2.33
2018-11-23T08:10:22.649Z,2.40
2018-11-23T08:11:22.666Z,2.34
2018-11-23T08:12:22.686Z,2.42
2018-11-23T08:13:22.707Z,2.51
2018-11-23T08:14:22.728Z,2.41
2018-11-23T08:15:22.749Z,2.45
2018-11-23T08:16:22.771Z,2.51
2018-11-23T08:17:22.794Z,2.52
2018-11-23T08:18:22.814Z,2.59
2018-11-23T08:19:22.836Z,2.59
2018-11-23T08:20:22.859Z,2.55
2018-11-23T08:21:22.884Z,2.59
2018-11-23T08:22:22.901Z,2.65
2018-11-23T08:23:22.926Z,2.78
2018-11-23T08:24:22.948Z,2.73
2018-11-23T08:25:22.973Z,2.77
2018-11-23T08:26:22.991Z,2.87
2018-11-23T08:27:23.014Z,2.81
2018-11-23T08:28:23.032Z,2.88
2018-11-23T08:29:23.055Z,2.87
2018-11-23T08:30:23.083Z,2.85
2018-11-23T08:31:23.097Z,2.90
2018-11-23T08:32:23.120Z,2.90
2018-11-23T08:33:23.141Z,2.91
2018-11-23T08:34:23.163Z,2.91
2018-11-23T08:35:23.185Z,2.96
2018-11-23T08:36:23.206Z,3.03
2018-11-23T08:37:23.229Z,3.08
2018-11-23T08:38:23.253Z,2.96
2018-11-23T08:39:23.272Z,2.99
2018-11-23T08:40:23.294Z,3.02
2018-11-23T08:41:23.316Z,3.06
2018-11-23T08:42:23.362Z,3.06
2018-11-23T08:43:23.362Z,3.11
2018-11-23T08:44:23.382Z,3.08
2018-11-23T08:45:23.412Z,3.11
2018-11-23T08:46:23.427Z,3.24
2018-11-23T08:47:23.492Z,3.24
2018-11-23T08:48:23.471Z,3.35
2018-11-23T08:49:23.492Z,3.35
2018-11-23T08:50:23.513Z,3.54
2018-11-23T08:51:23.535Z,4.10
2018-11-23T08:52:23.558Z,4.83
2018-11-23T08:53:27.888Z,5.52
2018-11-23T08:54:23.601Z,5.99
2018-11-23T08:55:23.627Z,6.49
2018-11-23T08:56:23.649Z,7.00
2018-11-23T08:57:23.670Z,7.56
2018-11-23T08:58:23.692Z,8.07
2018-11-23T08:59:23.717Z,8.85
2018-11-23T09:00:23.739Z,9.38
2018-11-23T09:01:23.763Z,9.52
2018-11-23T09:02:23.788Z,9.64
2018-11-23T09:03:23.819Z,9.72
2018-11-23T09:04:23.836Z,10.05
2018-11-23T09:05:23.861Z,9.95
2018-11-23T09:06:23.887Z,10.25
2018-11-23T09:07:23.912Z,10.42
2018-11-23T09:08:23.939Z,10.57
2018-11-23T09:09:23.965Z,10.80
2018-11-23T09:10:23.990Z,10.98
2018-11-23T09:11:24.018Z,11.27
2018-11-23T09:12:24.045Z,11.15
2018-11-23T09:13:24.073Z,10.92
2018-11-23T09:14:24.098Z,10.70
2018-11-23T09:15:24.126Z,10.83
2018-11-23T09:16:24.155Z,10.98
2018-11-23T09:17:24.182Z,11.03
2018-11-23T09:18:24.217Z,11.27
2018-11-23T09:19:24.239Z,11.46
2018-11-23T09:20:24.312Z,11.41
2018-11-23T09:21:24.297Z,11.43
2018-11-23T09:22:24.324Z,11.98
2018-11-23T09:23:24.352Z,12.31
2018-11-23T09:24:24.381Z,12.53
2018-11-23T09:25:24.410Z,12.88
2018-11-23T09:26:24.441Z,12.95
2018-11-23T09:27:24.470Z,13.07
2018-11-23T09:29:12.063Z,12.98
2018-11-23T09:30:12.092Z,13.24
2018-11-23T09:31:12.121Z,13.24
2018-11-23T09:32:12.252Z,12.98
2018-11-23T09:33:12.184Z,12.83
2018-11-23T09:34:12.213Z,12.65
2018-11-23T09:35:12.246Z,12.41
2018-11-23T09:36:12.273Z,12.11
2018-11-23T09:37:12.303Z,12.33
2018-11-23T09:38:12.334Z,12.71
2018-11-23T09:39:12.363Z,12.59
2018-11-23T09:40:12.394Z,12.71
2018-11-23T09:41:12.425Z,12.95
2018-11-23T09:42:12.456Z,12.89
2018-11-23T09:43:12.486Z,13.02
2018-11-23T09:44:12.518Z,13.24
2018-11-23T09:45:12.549Z,13.53
2018-11-23T09:46:12.583Z,13.17
2018-11-23T09:47:12.617Z,12.83
2018-11-23T09:48:12.642Z,12.63
2018-11-23T09:49:12.850Z,12.29
2018-11-23T09:50:12.707Z,11.68
2018-11-23T09:51:12.737Z,10.75
2018-11-23T09:52:12.772Z,9.85
2018-11-23T09:53:12.807Z,9.08
2018-11-23T09:54:12.832Z,8.49
2018-11-23T09:55:12.864Z,8.24
2018-11-23T09:56:12.898Z,7.78
2018-11-23T09:57:12.928Z,7.31
2018-11-23T09:58:12.959Z,7.12
2018-11-23T09:59:12.987Z,6.94
2018-11-23T10:00:13.017Z,6.78
2018-11-23T10:01:13.048Z,6.64
2018-11-23T10:02:13.077Z,6.49
2018-11-23T10:03:13.107Z,6.49
2018-11-23T10:04:13.135Z,6.47
2018-11-23T10:05:13.169Z,6.36
2018-11-23T10:06:13.196Z,6.39
2018-11-23T10:07:13.224Z,6.24
2018-11-23T10:08:13.251Z,6.14
2018-11-23T10:09:13.279Z,6.13
2018-11-23T10:10:13.309Z,6.18
2018-11-23T10:11:13.335Z,6.05
2018-11-23T10:12:13.363Z,6.06
2018-11-23T10:13:13.392Z,6.05
2018-11-23T10:14:13.419Z,5.85
2018-11-23T10:15:13.445Z,6.73
2018-11-23T10:16:13.473Z,7.83
2018-11-23T10:17:13.501Z,8.92
2018-11-23T10:18:13.528Z,8.89
2018-11-23T10:19:13.555Z,9.47
2018-11-23T10:20:13.581Z,10.23
2018-11-23T10:21:13.608Z,10.31
2018-11-23T10:22:13.635Z,9.98
2018-11-23T10:23:13.663Z,9.99
2018-11-23T10:24:13.704Z,10.15
2018-11-23T10:25:13.721Z,10.25
2018-11-23T10:26:13.740Z,10.11
2018-11-23T10:27:13.782Z,9.96
2018-11-23T10:28:13.793Z,10.26
2018-11-23T10:29:13.819Z,10.38
2018-11-23T10:30:13.845Z,10.35
2018-11-23T10:31:13.877Z,10.47
2018-11-23T10:32:13.905Z,10.51
2018-11-23T10:33:13.923Z,10.57
2018-11-23T10:34:13.949Z,11.24
2018-11-23T10:35:13.978Z,11.15
2018-11-23T10:36:14.006Z,11.82
2018-11-23T10:37:14.029Z,11.81
2018-11-23T10:38:14.055Z,11.23
2018-11-23T10:39:14.079Z,10.91
2018-11-23T10:40:14.105Z,10.75
2018-11-23T10:41:14.131Z,10.67
2018-11-23T10:42:14.158Z,9.62
2018-11-23T10:43:14.268Z,8.97
2018-11-23T10:44:14.211Z,8.69
2018-11-23T10:45:14.235Z,8.01
2018-11-23T10:46:14.262Z,7.51
2018-11-23T10:47:14.288Z,7.19
2018-11-23T10:48:14.314Z,7.15
2018-11-23T10:49:14.339Z,7.08
2018-11-23T10:50:14.366Z,7.09
2018-11-23T10:51:14.390Z,7.09
2018-11-23T10:52:14.416Z,6.98
2018-11-23T10:53:14.441Z,6.98
2018-11-23T10:54:14.468Z,7.00
2018-11-23T10:55:14.492Z,7.08
2018-11-23T10:56:14.518Z,7.00
2018-11-23T10:57:14.543Z,6.95
2018-11-23T10:58:14.572Z,7.04
2018-11-23T10:59:14.593Z,6.97
2018-11-23T11:00:14.619Z,6.98
2018-11-23T11:01:14.644Z,7.08
2018-11-23T11:02:14.669Z,7.04
2018-11-23T11:03:14.694Z,7.08
2018-11-23T11:04:14.719Z,7.12
2018-11-23T11:05:14.744Z,7.12
2018-11-23T11:06:14.769Z,7.33
2018-11-23T11:07:14.793Z,7.30
2018-11-23T11:08:14.819Z,7.22
2018-11-23T11:09:14.844Z,7.15
2018-11-23T11:10:14.869Z,7.23
2018-11-23T11:11:14.901Z,7.30
2018-11-23T11:12:14.918Z,7.44
2018-11-23T11:13:14.944Z,7.40
2018-11-23T11:14:14.968Z,7.64
2018-11-23T11:15:14.994Z,7.74
2018-11-23T11:16:15.019Z,7.91
2018-11-23T11:17:15.043Z,8.16
2018-11-23T11:18:15.070Z,8.16
2018-11-23T11:19:15.096Z,8.49
2018-11-23T11:20:15.119Z,8.50
2018-11-23T11:21:15.145Z,8.68
2018-11-23T11:22:15.170Z,8.80
2018-11-23T11:23:15.195Z,9.01
2018-11-23T11:24:15.220Z,9.05
2018-11-23T11:25:15.245Z,9.47
2018-11-23T11:26:15.275Z,9.72
2018-11-23T11:27:15.297Z,10.11
2018-11-23T11:28:15.324Z,10.26
2018-11-23T11:29:15.350Z,10.77
2018-11-23T11:30:15.378Z,10.92
2018-11-23T11:31:15.405Z,11.20
2018-11-23T11:32:15.431Z,11.52
2018-11-23T11:33:15.460Z,11.26
2018-11-23T11:34:15.488Z,10.59
2018-11-23T11:35:15.514Z,9.84
2018-11-23T11:36:15.542Z,9.23
2018-11-23T11:37:15.571Z,8.95
2018-11-23T11:38:15.609Z,8.64
2018-11-23T11:39:18.086Z,8.76
2018-11-23T11:40:15.654Z,9.63
2018-11-23T11:41:15.682Z,10.17
2018-11-23T11:42:15.709Z,10.67
2018-11-23T11:43:15.737Z,10.54
2018-11-23T11:44:15.764Z,10.55
2018-11-23T11:45:15.792Z,10.76
2018-11-23T11:46:15.822Z,11.23
2018-11-23T11:47:15.849Z,11.52
2018-11-23T11:48:15.877Z,11.91
2018-11-23T11:49:15.905Z,12.45
2018-11-23T11:50:15.934Z,12.92
2018-11-23T11:51:17.688Z,13.28
2018-11-23T11:52:19.220Z,13.37
2018-11-23T11:53:16.024Z,13.25
2018-11-23T11:54:16.047Z,13.10
2018-11-23T11:55:16.075Z,13.37
2018-11-23T11:56:16.105Z,13.68
2018-11-23T11:57:16.135Z,13.87
2018-11-23T11:58:16.168Z,13.39
2018-11-23T11:59:16.192Z,13.70
2018-11-23T12:00:16.224Z,13.87
2018-11-23T12:01:16.253Z,14.21
2018-11-23T12:02:16.284Z,14.24
2018-11-23T12:03:16.317Z,14.33
2018-11-23T12:04:16.346Z,14.01
2018-11-23T12:05:16.378Z,14.11
2018-11-23T12:06:16.405Z,14.09
2018-11-23T12:07:16.435Z,14.13
2018-11-23T12:08:16.467Z,14.44
2018-11-23T12:09:16.499Z,14.59
2018-11-23T12:10:16.528Z,14.42
2018-11-23T12:11:16.759Z,14.75
2018-11-23T12:12:16.590Z,14.77
2018-11-23T12:13:16.620Z,14.90
2018-11-23T12:14:16.651Z,14.69
2018-11-23T12:15:16.681Z,14.33
2018-11-23T12:16:16.714Z,14.70
2018-11-23T12:17:16.743Z,14.61
2018-11-23T12:18:16.776Z,14.66
2018-11-23T12:19:16.807Z,14.95
2018-11-23T12:20:16.837Z,14.61
2018-11-23T12:21:16.874Z,14.79
2018-11-23T12:22:16.901Z,14.30
2018-11-23T12:23:16.930Z,13.20
2018-11-23T12:24:16.963Z,12.78
2018-11-23T12:25:16.998Z,12.26
2018-11-23T12:26:17.027Z,12.13
2018-11-23T12:27:17.057Z,12.81
2018-11-23T12:28:17.089Z,13.19
2018-11-23T12:29:17.119Z,13.50
2018-11-23T12:30:17.156Z,13.79
2018-11-23T12:31:17.181Z,13.39
2018-11-23T12:32:17.213Z,13.27
2018-11-23T12:33:17.243Z,13.44
2018-11-23T12:34:17.274Z,13.21
2018-11-23T12:35:17.306Z,13.02
2018-11-23T12:36:17.337Z,13.07
2018-11-23T12:37:17.367Z,13.37
2018-11-23T12:38:17.402Z,13.03
2018-11-23T12:39:17.427Z,12.76
2018-11-23T12:40:17.459Z,12.80
2018-11-23T12:41:17.490Z,12.61
2018-11-23T12:42:17.519Z,12.45
2018-11-23T12:43:17.548Z,12.16
2018-11-23T12:44:17.580Z,12.05
2018-11-23T12:45:17.610Z,12.20
2018-11-23T12:46:17.639Z,12.19
2018-11-23T12:47:17.671Z,12.31
2018-11-23T12:48:17.700Z,12.19
2018-11-23T12:49:17.728Z,12.04
2018-11-23T12:50:17.758Z,12.05
2018-11-23T12:51:17.788Z,11.71
2018-11-23T12:52:17.817Z,11.52
2018-11-23T12:53:17.846Z,11.21
2018-11-23T12:54:17.876Z,11.24
2018-11-23T12:55:17.907Z,11.38
2018-11-23T12:56:17.936Z,11.56
2018-11-23T12:57:17.963Z,11.73
2018-11-23T12:58:17.993Z,11.64
2018-11-23T12:59:18.022Z,11.73
2018-11-23T13:00:18.050Z,12.04
2018-11-23T13:01:18.079Z,11.94
2018-11-23T13:02:18.108Z,12.05
2018-11-23T13:03:18.139Z,12.07
2018-11-23T13:04:18.165Z,11.88
2018-11-23T13:05:18.196Z,11.43
2018-11-23T13:06:18.223Z,11.23
2018-11-23T13:07:18.251Z,11.35
2018-11-23T13:08:18.279Z,11.59
2018-11-23T13:09:18.307Z,11.70
2018-11-23T13:10:18.438Z,11.75
2018-11-23T13:11:18.366Z,11.95
2018-11-23T13:12:18.394Z,12.05
2018-11-23T13:13:18.423Z,12.16